createdAt,value
2019-03-29T00:00:12.830Z,3.48
2019-03-29T00:02:42.956Z,3.50
2019-03-29T00:05:12.684Z,3.30
2019-03-29T00:07:42.921Z,3.27
2019-03-29T00:10:11.888Z,3.18
2019-03-29T00:12:40.947Z,3.06
2019-03-29T00:15:11.034Z,3.06
2019-03-29T00:17:40.028Z,3.00
2019-03-29T00:20:09.107Z,2.96
2019-03-29T00:22:38.087Z,2.76
2019-03-29T00:25:07.401Z,2.73
2019-03-29T00:27:36.332Z,2.86
2019-03-29T00:30:06.388Z,2.96
2019-03-29T00:32:35.240Z,3.09
2019-03-29T00:35:04.902Z,3.12
2019-03-29T00:37:33.721Z,3.03
2019-03-29T00:40:02.551Z,3.07
2019-03-29T00:42:31.423Z,3.07
2019-03-29T00:45:00.410Z,2.99
2019-03-29T00:47:29.981Z,3.06
2019-03-29T00:49:59.043Z,2.93
2019-03-29T00:52:27.902Z,2.91
2019-03-29T00:54:56.670Z,2.89
2019-03-29T00:57:25.451Z,2.77
2019-03-29T00:59:54.294Z,2.78
2019-03-29T01:02:23.165Z,2.84
2019-03-29T01:04:51.950Z,2.76
2019-03-29T01:07:20.773Z,2.72
2019-03-29T01:09:49.639Z,2.55
2019-03-29T01:12:18.465Z,2.55
2019-03-29T01:14:47.314Z,2.59
2019-03-29T01:17:16.081Z,2.74
2019-03-29T01:19:44.917Z,2.74
2019-03-29T01:22:13.751Z,2.65
2019-03-29T01:24:42.524Z,2.61
2019-03-29T01:27:11.374Z,2.73
2019-03-29T01:29:40.265Z,2.79
2019-03-29T01:32:09.140Z,2.77
2019-03-29T01:34:38.013Z,2.85
2019-03-29T01:37:06.837Z,2.89
2019-03-29T01:39:35.689Z,2.91
2019-03-29T01:42:04.478Z,2.93
2019-03-29T01:44:33.410Z,2.90
2019-03-29T01:47:02.290Z,2.91
2019-03-29T01:49:31.135Z,2.92
2019-03-29T01:51:59.973Z,2.91
2019-03-29T01:54:28.827Z,2.88
2019-03-29T01:56:57.674Z,2.91
2019-03-29T01:59:26.548Z,2.73
2019-03-29T02:01:55.365Z,2.67
2019-03-29T02:04:24.295Z,2.65
2019-03-29T02:06:53.172Z,2.66
2019-03-29T02:09:21.939Z,2.60
2019-03-29T02:11:50.803Z,2.58
2019-03-29T02:14:19.603Z,2.55
2019-03-29T02:16:48.447Z,2.58
2019-03-29T02:19:17.293Z,2.56
2019-03-29T02:21:46.076Z,2.55
2019-03-29T02:24:14.911Z,2.53
2019-03-29T02:26:43.755Z,2.52
2019-03-29T02:29:12.584Z,2.53
2019-03-29T02:31:42.426Z,2.47
2019-03-29T02:34:11.639Z,2.35
2019-03-29T02:36:40.495Z,2.08
2019-03-29T02:39:09.377Z,1.84
2019-03-29T02:41:38.218Z,1.66
2019-03-29T02:44:07.606Z,1.59
2019-03-29T02:46:36.796Z,1.55
2019-03-29T02:49:05.574Z,1.53
2019-03-29T02:51:34.417Z,1.50
2019-03-29T02:54:03.265Z,1.47
2019-03-29T02:56:32.088Z,1.31
2019-03-29T02:59:00.918Z,1.41
2019-03-29T03:01:29.753Z,1.34
2019-03-29T03:03:58.600Z,1.34
2019-03-29T03:06:27.437Z,1.20
2019-03-29T03:09:12.144Z,1.24
2019-03-29T03:11:26.755Z,1.22
2019-03-29T03:13:55.585Z,1.23
2019-03-29T03:16:24.442Z,1.30
2019-03-29T03:18:53.277Z,1.27
2019-03-29T03:21:22.099Z,1.28
2019-03-29T03:23:50.863Z,1.28
2019-03-29T03:26:19.708Z,1.31
2019-03-29T03:28:48.557Z,1.28
2019-03-29T03:31:17.415Z,1.23
2019-03-29T03:33:46.174Z,1.17
2019-03-29T03:36:15.031Z,1.25
2019-03-29T03:38:43.864Z,1.27
2019-03-29T03:41:12.689Z,1.37
2019-03-29T03:43:41.455Z,1.30
2019-03-29T03:46:10.296Z,1.23
2019-03-29T03:48:39.129Z,1.16
2019-03-29T03:51:07.970Z,1.07
2019-03-29T03:53:36.726Z,1.07
2019-03-29T03:56:06.975Z,0.96
2019-03-29T03:58:36.308Z,0.86
2019-03-29T04:01:05.154Z,0.96
2019-03-29T04:03:34.010Z,0.92
2019-03-29T04:06:02.802Z,0.74
2019-03-29T04:08:31.689Z,0.84
2019-03-29T04:11:00.514Z,0.77
2019-03-29T04:13:29.281Z,0.88
2019-03-29T04:15:58.069Z,0.86
2019-03-29T04:18:26.894Z,0.91
2019-03-29T04:20:55.739Z,0.87
2019-03-29T04:23:24.690Z,0.93
2019-03-29T04:25:53.910Z,0.99
2019-03-29T04:28:24.458Z,1.09
2019-03-29T04:30:53.336Z,1.07
2019-03-29T04:33:22.109Z,1.24
2019-03-29T04:35:50.878Z,1.44
2019-03-29T04:38:19.829Z,1.52
2019-03-29T04:40:48.770Z,1.65
2019-03-29T04:43:17.627Z,1.63
2019-03-29T04:45:46.469Z,1.80
2019-03-29T04:48:15.313Z,1.89
2019-03-29T04:50:44.175Z,1.83
2019-03-29T04:53:13.056Z,1.82
2019-03-29T04:55:41.895Z,1.80
2019-03-29T04:58:10.773Z,1.76
2019-03-29T05:00:39.563Z,1.79
2019-03-29T05:03:08.393Z,1.85
2019-03-29T05:05:37.240Z,2.16
2019-03-29T05:08:06.032Z,2.29
2019-03-29T05:10:34.849Z,2.33
2019-03-29T05:13:03.705Z,2.37
2019-03-29T05:15:32.576Z,2.78
2019-03-29T05:18:01.659Z,2.98
2019-03-29T05:20:30.508Z,3.11
2019-03-29T05:22:59.342Z,3.24
2019-03-29T05:25:28.280Z,3.19
2019-03-29T05:27:57.487Z,3.44
2019-03-29T05:30:26.368Z,3.91
2019-03-29T05:32:55.208Z,4.32
2019-03-29T05:35:24.056Z,4.37
2019-03-29T05:37:52.894Z,4.65
2019-03-29T05:40:34.280Z,4.98
2019-03-29T05:42:52.236Z,4.86
2019-03-29T05:45:21.121Z,4.94
2019-03-29T05:47:50.015Z,5.18
2019-03-29T05:50:18.851Z,5.43
2019-03-29T05:52:47.887Z,5.84
2019-03-29T05:55:16.739Z,5.89
2019-03-29T05:57:45.573Z,5.82
2019-03-29T06:00:16.192Z,6.03
2019-03-29T06:02:45.056Z,6.24
2019-03-29T06:05:14.012Z,6.26
2019-03-29T06:07:42.774Z,6.27
2019-03-29T06:10:11.655Z,6.39
2019-03-29T06:12:40.498Z,6.71
2019-03-29T06:15:09.554Z,7.09
2019-03-29T06:17:48.622Z,7.15
2019-03-29T06:20:09.192Z,7.16
2019-03-29T06:22:38.024Z,7.59
2019-03-29T06:25:08.216Z,7.70
2019-03-29T06:27:37.685Z,7.79
2019-03-29T06:30:08.174Z,7.99
2019-03-29T06:32:37.624Z,8.42
2019-03-29T06:35:08.366Z,8.47
2019-03-29T06:37:40.416Z,8.69
2019-03-29T06:40:12.703Z,9.01
2019-03-29T06:42:42.133Z,8.87
2019-03-29T06:45:11.859Z,9.19
2019-03-29T06:47:41.297Z,9.41
2019-03-29T06:50:13.954Z,9.50
2019-03-29T06:52:42.166Z,9.82
2019-03-29T06:55:11.666Z,10.11
2019-03-29T06:57:41.116Z,10.30
2019-03-29T07:00:10.845Z,10.29
2019-03-29T07:02:40.288Z,10.31
2019-03-29T07:05:09.732Z,10.34
2019-03-29T07:07:39.131Z,10.33
2019-03-29T07:10:08.634Z,10.28
2019-03-29T07:12:39.608Z,10.42
2019-03-29T07:15:09.059Z,10.71
2019-03-29T07:17:38.427Z,10.67
2019-03-29T07:20:08.138Z,11.10
2019-03-29T07:22:37.624Z,11.17
2019-03-29T07:25:08.350Z,11.04
2019-03-29T07:27:44.950Z,11.57
2019-03-29T07:30:10.193Z,11.79
2019-03-29T07:32:39.603Z,11.53
2019-03-29T07:35:09.090Z,11.64
2019-03-29T07:37:38.534Z,11.76
2019-03-29T07:40:08.521Z,12.16
2019-03-29T07:42:37.937Z,12.15
2019-03-29T07:45:10.151Z,12.32
2019-03-29T07:47:39.559Z,12.35
2019-03-29T07:50:09.013Z,12.61
2019-03-29T07:52:38.465Z,12.71
2019-03-29T07:55:08.378Z,13.06
2019-03-29T07:57:37.784Z,13.23
2019-03-29T08:00:09.164Z,13.06
2019-03-29T08:02:38.826Z,13.17
2019-03-29T08:05:08.364Z,13.49
2019-03-29T08:07:37.808Z,13.52
2019-03-29T08:10:07.359Z,13.79
2019-03-29T08:12:40.319Z,13.96
2019-03-29T08:15:09.848Z,13.91
2019-03-29T08:17:39.565Z,14.22
2019-03-29T08:20:37.381Z,14.60
2019-03-29T08:22:40.265Z,14.50
2019-03-29T08:25:09.630Z,14.17
2019-03-29T08:27:39.167Z,14.43
2019-03-29T08:30:08.993Z,14.74
2019-03-29T08:32:38.340Z,14.74
2019-03-29T08:35:07.925Z,14.98
2019-03-29T08:37:37.389Z,15.22
2019-03-29T08:40:06.969Z,15.34
2019-03-29T08:42:36.437Z,15.52
2019-03-29T08:45:07.492Z,15.84
2019-03-29T08:47:36.948Z,15.73
2019-03-29T08:50:08.024Z,15.61
2019-03-29T08:52:37.469Z,15.73
2019-03-29T08:55:07.972Z,15.09
2019-03-29T08:57:37.495Z,15.35
2019-03-29T09:00:10.473Z,15.43
2019-03-29T09:02:39.941Z,16.53
2019-03-29T09:05:09.369Z,16.23
2019-03-29T09:07:44.996Z,16.68
2019-03-29T09:10:27.221Z,17.11
2019-03-29T09:12:56.757Z,16.59
2019-03-29T09:15:26.142Z,16.16
2019-03-29T09:17:55.610Z,16.56
2019-03-29T09:20:25.019Z,16.46
2019-03-29T09:22:54.518Z,16.71
2019-03-29T09:25:24.059Z,16.21
2019-03-29T09:27:57.359Z,16.07
2019-03-29T09:30:26.984Z,16.32
2019-03-29T09:32:56.426Z,16.88
2019-03-29T09:35:25.842Z,16.98
2019-03-29T09:37:56.641Z,16.35
2019-03-29T09:40:26.373Z,17.03
2019-03-29T09:43:06.873Z,17.24
2019-03-29T09:45:26.941Z,17.11
2019-03-29T09:47:56.382Z,17.10
2019-03-29T09:50:25.925Z,16.93
2019-03-29T09:52:55.348Z,16.80
2019-03-29T09:55:24.774Z,17.17
2019-03-29T09:57:54.281Z,16.58
2019-03-29T10:00:24.039Z,16.91
2019-03-29T10:02:53.693Z,17.17
2019-03-29T10:05:23.097Z,17.46
2019-03-29T10:07:52.632Z,17.91
2019-03-29T10:10:22.170Z,17.95
2019-03-29T10:12:51.563Z,17.97
2019-03-29T10:15:20.960Z,17.90
2019-03-29T10:17:50.391Z,18.00
2019-03-29T10:20:19.877Z,17.88
2019-03-29T10:22:49.390Z,17.68
2019-03-29T10:25:20.199Z,18.10
2019-03-29T10:27:50.081Z,18.71
2019-03-29T10:30:34.331Z,18.16
2019-03-29T10:33:03.700Z,17.21
2019-03-29T10:35:33.198Z,18.04
2019-03-29T10:38:02.655Z,18.28
2019-03-29T10:40:32.087Z,18.22
2019-03-29T10:43:01.554Z,18.25
2019-03-29T10:45:30.951Z,18.66
2019-03-29T10:48:00.417Z,18.59
2019-03-29T10:50:29.986Z,18.65
2019-03-29T10:52:59.508Z,18.56
2019-03-29T10:55:28.973Z,18.65
2019-03-29T10:57:58.419Z,18.65
2019-03-29T11:00:36.040Z,20.00
2019-03-29T11:03:06.081Z,20.31
2019-03-29T11:05:35.528Z,19.77
2019-03-29T11:08:05.280Z,19.40
2019-03-29T11:10:36.893Z,20.34
2019-03-29T11:13:13.389Z,19.74
2019-03-29T11:15:37.690Z,19.16
2019-03-29T11:18:07.578Z,18.45
2019-03-29T11:20:37.065Z,18.83
2019-03-29T11:23:06.685Z,19.20
2019-03-29T11:25:36.174Z,19.31
2019-03-29T11:28:05.645Z,20.20
2019-03-29T11:30:42.164Z,20.68
2019-03-29T11:33:06.538Z,20.39
2019-03-29T11:35:36.071Z,20.67
2019-03-29T11:38:05.615Z,20.33
2019-03-29T11:40:35.096Z,20.73
2019-03-29T11:43:04.554Z,20.82
2019-03-29T11:45:34.229Z,19.55
2019-03-29T11:48:08.924Z,19.55
2019-03-29T11:50:34.798Z,19.36
2019-03-29T11:53:04.306Z,19.36
2019-03-29T11:55:33.674Z,20.02
2019-03-29T11:58:03.114Z,19.86
2019-03-29T12:00:36.993Z,19.53
2019-03-29T12:03:09.189Z,19.87
2019-03-29T12:05:37.642Z,19.77
2019-03-29T12:08:07.249Z,20.04
2019-03-29T12:10:36.667Z,19.86
2019-03-29T12:13:06.566Z,19.30
2019-03-29T12:15:35.991Z,18.66
2019-03-29T12:18:05.414Z,18.42
2019-03-29T12:20:34.777Z,17.66
2019-03-29T12:23:04.282Z,17.84
2019-03-29T12:25:33.690Z,17.55
2019-03-29T12:28:03.124Z,17.83
2019-03-29T12:30:33.175Z,18.16
2019-03-29T12:33:02.591Z,18.62
2019-03-29T12:35:32.021Z,17.96
2019-03-29T12:38:01.666Z,18.20
2019-03-29T12:40:31.102Z,17.42
2019-03-29T12:43:00.628Z,17.88
2019-03-29T12:45:30.062Z,18.09
2019-03-29T12:47:59.496Z,17.24
2019-03-29T12:50:28.946Z,17.61
2019-03-29T12:52:58.379Z,18.03
2019-03-29T12:55:27.888Z,17.70
2019-03-29T12:57:57.351Z,17.13
2019-03-29T13:00:26.966Z,16.98
2019-03-29T13:02:56.443Z,16.63
2019-03-29T13:05:25.884Z,16.54
2019-03-29T13:07:55.361Z,16.54
2019-03-29T13:10:25.288Z,17.15
2019-03-29T13:12:54.720Z,16.43
2019-03-29T13:15:24.151Z,16.09
2019-03-29T13:17:53.660Z,15.83
2019-03-29T13:20:23.041Z,15.64
2019-03-29T13:22:52.491Z,15.49
2019-03-29T13:25:21.990Z,15.62
2019-03-29T13:27:51.329Z,15.55
2019-03-29T13:30:20.832Z,15.80
2019-03-29T13:32:50.413Z,15.96
2019-03-29T13:35:19.875Z,16.08
2019-03-29T13:37:49.359Z,15.91
2019-03-29T13:40:21.153Z,16.18
2019-03-29T13:42:50.046Z,16.06
2019-03-29T13:45:19.524Z,15.94
2019-03-29T13:47:48.915Z,15.55
2019-03-29T13:50:18.424Z,15.45
2019-03-29T13:52:47.850Z,15.61
2019-03-29T13:55:17.246Z,15.71
2019-03-29T13:57:46.713Z,15.94
2019-03-29T14:00:16.586Z,15.64
2019-03-29T14:02:46.013Z,15.89
2019-03-29T14:05:15.504Z,15.79
2019-03-29T14:07:44.952Z,15.32
2019-03-29T14:10:14.344Z,15.69
2019-03-29T14:12:43.705Z,16.02
2019-03-29T14:15:13.836Z,15.96
2019-03-29T14:17:43.348Z,15.55
2019-03-29T14:20:13.464Z,15.80
2019-03-29T14:22:42.900Z,15.71
2019-03-29T14:25:12.454Z,15.52
2019-03-29T14:27:41.897Z,15.36
2019-03-29T14:30:11.735Z,15.35
2019-03-29T14:32:41.089Z,15.68
2019-03-29T14:35:10.629Z,15.78
2019-03-29T14:37:40.061Z,15.77
2019-03-29T14:40:10.427Z,15.50
2019-03-29T14:42:39.902Z,15.52
2019-03-29T14:45:09.769Z,15.41
2019-03-29T14:47:43.388Z,15.66
2019-03-29T14:50:10.789Z,15.88
2019-03-29T14:52:40.263Z,15.97
2019-03-29T14:55:09.948Z,15.97
2019-03-29T14:57:39.390Z,15.54
2019-03-29T15:00:12.912Z,15.63
2019-03-29T15:02:42.402Z,16.05
2019-03-29T15:05:11.950Z,16.63
2019-03-29T15:07:43.010Z,16.50
2019-03-29T15:10:28.370Z,16.83
2019-03-29T15:12:57.907Z,17.10
2019-03-29T15:15:27.350Z,17.01
2019-03-29T15:17:56.774Z,17.75
2019-03-29T15:20:26.193Z,17.94
2019-03-29T15:22:55.650Z,17.85
2019-03-29T15:25:25.090Z,17.52
2019-03-29T15:27:54.560Z,17.44
2019-03-29T15:30:23.923Z,17.01
2019-03-29T15:32:53.368Z,16.90
2019-03-29T15:35:22.828Z,17.73
2019-03-29T15:37:52.274Z,17.35
2019-03-29T15:40:21.803Z,17.34
2019-03-29T15:42:51.239Z,16.53
2019-03-29T15:45:21.263Z,16.36
2019-03-29T15:47:50.725Z,16.00
2019-03-29T15:50:20.183Z,15.81
2019-03-29T15:52:49.636Z,15.39
2019-03-29T15:55:19.192Z,15.10
2019-03-29T15:57:48.668Z,14.73
2019-03-29T16:00:18.236Z,14.15
2019-03-29T16:02:47.665Z,13.79
2019-03-29T16:05:17.099Z,13.53
2019-03-29T16:07:46.594Z,13.49
2019-03-29T16:10:16.072Z,13.23
2019-03-29T16:12:45.405Z,13.09
2019-03-29T16:15:14.858Z,13.00
2019-03-29T16:17:44.282Z,12.92
2019-03-29T16:20:13.722Z,12.72
2019-03-29T16:22:43.191Z,12.53
2019-03-29T16:25:12.622Z,12.40
2019-03-29T16:27:42.070Z,12.25
2019-03-29T16:30:11.949Z,12.12
2019-03-29T16:32:41.457Z,12.15
2019-03-29T16:35:10.880Z,12.09
2019-03-29T16:37:40.337Z,11.90
2019-03-29T16:40:09.945Z,11.82
2019-03-29T16:42:39.377Z,11.73
2019-03-29T16:45:09.344Z,11.66
2019-03-29T16:47:38.849Z,11.51
2019-03-29T16:50:09.075Z,11.44
2019-03-29T16:52:38.544Z,11.36
2019-03-29T16:55:13.802Z,11.30
2019-03-29T16:57:39.804Z,11.25
2019-03-29T17:00:12.545Z,11.02
2019-03-29T17:02:42.366Z,10.92
2019-03-29T17:05:11.851Z,10.83
2019-03-29T17:07:41.237Z,10.76
2019-03-29T17:10:11.212Z,10.77
2019-03-29T17:12:40.718Z,10.77
2019-03-29T17:15:10.247Z,10.69
2019-03-29T17:17:39.774Z,10.59
2019-03-29T17:20:09.685Z,10.56
2019-03-29T17:22:39.103Z,10.45
2019-03-29T17:25:08.907Z,10.30
2019-03-29T17:27:38.267Z,10.24
2019-03-29T17:30:09.498Z,10.19
2019-03-29T17:32:38.951Z,10.16
2019-03-29T17:35:08.425Z,10.09
2019-03-29T17:37:37.876Z,10.07
2019-03-29T17:40:08.975Z,9.99
2019-03-29T17:42:38.440Z,9.80
2019-03-29T17:45:08.382Z,9.71
2019-03-29T17:47:37.821Z,9.63
2019-03-29T17:50:07.929Z,9.45
2019-03-29T17:52:37.379Z,9.41
2019-03-29T17:55:07.658Z,9.35
2019-03-29T17:57:37.131Z,9.23
2019-03-29T18:00:08.209Z,9.19
2019-03-29T18:02:37.723Z,9.15
2019-03-29T18:05:08.041Z,9.12
2019-03-29T18:07:37.480Z,9.11
2019-03-29T18:10:08.422Z,9.06
2019-03-29T18:12:37.871Z,9.02
2019-03-29T18:15:12.153Z,8.99
2019-03-29T18:17:41.659Z,8.95
2019-03-29T18:20:11.665Z,8.96
2019-03-29T18:22:41.113Z,8.93
2019-03-29T18:25:10.552Z,8.93
2019-03-29T18:27:40.151Z,8.88
2019-03-29T18:30:11.385Z,8.81
2019-03-29T18:32:41.102Z,8.86
2019-03-29T18:35:11.194Z,8.89
2019-03-29T18:37:41.056Z,8.86
2019-03-29T18:40:16.174Z,8.80
2019-03-29T18:42:45.705Z,8.71
2019-03-29T18:45:15.175Z,8.72
2019-03-29T18:47:44.686Z,8.80
2019-03-29T18:50:14.144Z,8.70
2019-03-29T18:52:43.594Z,8.67
2019-03-29T18:55:12.979Z,8.66
2019-03-29T18:57:42.483Z,8.60
2019-03-29T19:00:12.082Z,8.62
2019-03-29T19:02:41.529Z,8.57
2019-03-29T19:05:13.857Z,8.47
2019-03-29T19:07:43.334Z,8.25
2019-03-29T19:10:12.776Z,8.29
2019-03-29T19:12:44.099Z,8.19
2019-03-29T19:15:13.589Z,8.16
2019-03-29T19:17:43.178Z,8.20
2019-03-29T19:20:26.276Z,8.21
2019-03-29T19:22:43.943Z,8.23
2019-03-29T19:25:13.385Z,8.18
2019-03-29T19:27:42.822Z,8.18
2019-03-29T19:30:12.136Z,8.14
2019-03-29T19:32:41.611Z,8.09
2019-03-29T19:35:11.157Z,8.05
2019-03-29T19:37:40.673Z,8.02
2019-03-29T19:40:10.351Z,7.99
2019-03-29T19:42:40.029Z,7.94
2019-03-29T19:45:13.134Z,7.98
2019-03-29T19:47:42.622Z,7.98
2019-03-29T19:50:11.980Z,7.89
2019-03-29T19:52:41.492Z,7.84
2019-03-29T19:55:10.372Z,7.73
2019-03-29T19:57:39.265Z,7.75
2019-03-29T20:00:15.076Z,7.81
2019-03-29T20:02:44.652Z,7.77
2019-03-29T20:05:25.852Z,7.73
2019-03-29T20:07:56.122Z,7.72
2019-03-29T20:10:25.058Z,7.71
2019-03-29T20:12:54.693Z,7.60
2019-03-29T20:15:23.607Z,7.52
2019-03-29T20:17:52.773Z,7.55
2019-03-29T20:20:25.637Z,7.39
2019-03-29T20:22:56.506Z,7.37
2019-03-29T20:25:26.123Z,7.18
2019-03-29T20:27:58.090Z,7.22
2019-03-29T20:30:25.999Z,7.13
2019-03-29T20:32:54.816Z,7.12
2019-03-29T20:35:23.762Z,7.11
2019-03-29T20:37:52.532Z,7.11
2019-03-29T20:40:21.675Z,7.13
2019-03-29T20:42:50.550Z,7.16
2019-03-29T20:45:19.482Z,7.00
2019-03-29T20:47:51.647Z,6.82
2019-03-29T20:50:19.083Z,6.77
2019-03-29T20:52:47.926Z,6.75
2019-03-29T20:55:16.779Z,6.68
2019-03-29T20:57:45.848Z,6.63
2019-03-29T21:00:17.281Z,6.50
2019-03-29T21:02:46.308Z,6.47
2019-03-29T21:05:15.258Z,6.43
2019-03-29T21:07:44.132Z,6.47
2019-03-29T21:10:12.993Z,6.44
2019-03-29T21:12:41.904Z,6.36
2019-03-29T21:15:11.346Z,6.32
2019-03-29T21:17:40.338Z,6.25
2019-03-29T21:20:10.341Z,6.17
2019-03-29T21:22:39.190Z,6.09
2019-03-29T21:25:08.519Z,6.05
2019-03-29T21:27:37.770Z,5.91
2019-03-29T21:30:09.571Z,5.86
2019-03-29T21:32:38.440Z,5.77
2019-03-29T21:35:08.205Z,5.65
2019-03-29T21:37:37.761Z,5.63
2019-03-29T21:40:08.594Z,5.59
2019-03-29T21:42:37.731Z,5.43
2019-03-29T21:45:08.399Z,5.50
2019-03-29T21:47:37.262Z,5.34
2019-03-29T21:50:10.435Z,5.28
2019-03-29T21:52:39.375Z,5.24
2019-03-29T21:55:08.579Z,5.12
2019-03-29T21:57:37.416Z,5.06
2019-03-29T22:00:08.894Z,4.97
2019-03-29T22:02:37.742Z,4.96
2019-03-29T22:05:10.335Z,4.98
2019-03-29T22:07:38.361Z,4.92
2019-03-29T22:10:08.684Z,4.89
2019-03-29T22:12:37.685Z,4.92
2019-03-29T22:15:10.148Z,4.87
2019-03-29T22:17:39.223Z,4.83
2019-03-29T22:20:09.606Z,4.78
2019-03-29T22:22:38.670Z,4.75
2019-03-29T22:25:08.512Z,4.71
2019-03-29T22:27:37.477Z,4.69
2019-03-29T22:30:11.198Z,4.71
2019-03-29T22:32:40.037Z,4.71
2019-03-29T22:35:09.195Z,4.64
2019-03-29T22:37:38.144Z,4.69
2019-03-29T22:40:10.530Z,4.70
2019-03-29T22:42:39.383Z,4.68
2019-03-29T22:45:09.204Z,4.59
2019-03-29T22:47:38.066Z,4.57
2019-03-29T22:50:07.502Z,4.54
2019-03-29T22:52:36.441Z,4.58
2019-03-29T22:55:08.505Z,4.52
2019-03-29T22:57:37.361Z,4.47
2019-03-29T23:00:28.598Z,4.48
2019-03-29T23:02:57.433Z,4.41
2019-03-29T23:05:26.357Z,4.45
2019-03-29T23:07:55.199Z,4.48
2019-03-29T23:10:24.146Z,4.49
2019-03-29T23:12:52.984Z,4.41
2019-03-29T23:15:21.861Z,4.30
2019-03-29T23:17:50.737Z,4.24
2019-03-29T23:20:19.699Z,4.15
2019-03-29T23:22:48.549Z,4.02
2019-03-29T23:25:17.391Z,3.95
2019-03-29T23:27:46.290Z,3.81
2019-03-29T23:30:15.871Z,3.71
2019-03-29T23:32:44.712Z,3.57
2019-03-29T23:35:13.676Z,3.47
2019-03-29T23:37:42.452Z,3.47
2019-03-29T23:40:11.380Z,3.49
2019-03-29T23:42:40.142Z,3.43
2019-03-29T23:45:09.013Z,3.28
2019-03-29T23:47:37.850Z,3.05
2019-03-29T23:50:07.824Z,2.90
2019-03-29T23:52:36.632Z,2.84
2019-03-29T23:55:06.272Z,2.88
2019-03-29T23:57:35.113Z,2.96
